sensor_id;sensor_type;location;lat;lon;timestamp;pressure;altitude;pressure_sealevel;temperature;humidity
40315;BME280;26021;45.640;11.302;2022-12-10T00:01:36;97162.69;;;6.34;100.00
40315;BME280;26021;45.640;11.302;2022-12-10T00:04:01;97156.44;;;6.21;100.00
40315;BME280;26021;45.640;11.302;2022-12-10T00:06:31;97148.03;;;6.17;100.00
40315;BME280;26021;45.640;11.302;2022-12-10T00:08:58;97144.75;;;6.15;100.00
40315;BME280;26021;45.640;11.302;2022-12-10T00:11:23;97157.44;;;6.20;100.00
40315;BME280;26021;45.640;11.302;2022-12-10T00:13:49;97160.09;;;5.98;100.00
40315;BME280;26021;45.640;11.302;2022-12-10T00:16:15;97158.22;;;6.14;100.00
40315;BME280;26021;45.640;11.302;2022-12-10T00:18:41;97163.59;;;6.20;100.00
40315;BME280;26021;45.640;11.302;2022-12-10T00:21:11;97158.31;;;6.27;100.00
40315;BME280;26021;45.640;11.302;2022-12-10T00:23:36;97164.91;;;6.31;100.00
40315;BME280;26021;45.640;11.302;2022-12-10T00:26:06;97169.81;;;6.34;100.00
40315;BME280;26021;45.640;11.302;2022-12-10T00:28:31;97166.16;;;6.35;100.00
40315;BME280;26021;45.640;11.302;2022-12-10T00:31:19;97165.97;;;6.36;100.00
40315;BME280;26021;45.640;11.302;2022-12-10T00:33:43;97156.09;;;6.52;100.00
40315;BME280;26021;45.640;11.302;2022-12-10T00:36:09;97154.09;;;6.32;100.00
40315;BME280;26021;45.640;11.302;2022-12-10T00:38:35;97155.13;;;6.10;100.00
40315;BME280;26021;45.640;11.302;2022-12-10T00:41:01;97154.91;;;6.33;100.00
40315;BME280;26021;45.640;11.302;2022-12-10T00:43:27;97154.66;;;6.28;100.00
40315;BME280;26021;45.640;11.302;2022-12-10T00:45:52;97151.44;;;6.11;100.00
40315;BME280;26021;45.640;11.302;2022-12-10T00:48:17;97148.72;;;6.26;100.00
40315;BME280;26021;45.640;11.302;2022-12-10T00:50:43;97149.22;;;6.36;100.00
40315;BME280;26021;45.640;11.302;2022-12-10T00:53:08;97137.09;;;6.05;100.00
40315;BME280;26021;45.640;11.302;2022-12-10T00:55:33;97141.28;;;6.15;100.00
40315;BME280;26021;45.640;11.302;2022-12-10T00:57:59;97150.31;;;6.20;100.00
40315;BME280;26021;45.640;11.302;2022-12-10T01:00:24;97140.13;;;6.24;100.00
40315;BME280;26021;45.640;11.302;2022-12-10T01:02:49;97136.75;;;6.36;100.00
40315;BME280;26021;45.640;11.302;2022-12-10T01:05:15;97135.59;;;6.18;100.00
40315;BME280;26021;45.640;11.302;2022-12-10T01:07:40;97136.41;;;6.18;100.00
40315;BME280;26021;45.640;11.302;2022-12-10T01:10:06;97138.47;;;6.23;100.00
40315;BME280;26021;45.640;11.302;2022-12-10T01:12:31;97155.44;;;6.22;100.00
40315;BME280;26021;45.640;11.302;2022-12-10T01:14:56;97158.44;;;6.40;100.00
40315;BME280;26021;45.640;11.302;2022-12-10T01:17:22;97163.59;;;6.20;100.00
40315;BME280;26021;45.640;11.302;2022-12-10T01:19:47;97166.56;;;6.11;100.00
40315;BME280;26021;45.640;11.302;2022-12-10T01:22:12;97162.38;;;6.23;100.00
40315;BME280;26021;45.640;11.302;2022-12-10T01:24:37;97155.19;;;5.95;100.00
40315;BME280;26021;45.640;11.302;2022-12-10T01:27:03;97159.09;;;5.99;100.00
40315;BME280;26021;45.640;11.302;2022-12-10T01:29:28;97150.69;;;5.96;100.00
40315;BME280;26021;45.640;11.302;2022-12-10T01:31:54;97140.44;;;6.14;100.00
40315;BME280;26021;45.640;11.302;2022-12-10T01:34:20;97138.69;;;6.00;100.00
40315;BME280;26021;45.640;11.302;2022-12-10T01:36:48;97127.94;;;6.08;100.00
40315;BME280;26021;45.640;11.302;2022-12-10T01:39:14;97123.38;;;6.23;100.00
40315;BME280;26021;45.640;11.302;2022-12-10T01:41:41;97120.81;;;6.36;100.00
40315;BME280;26021;45.640;11.302;2022-12-10T01:46:33;97133.00;;;6.03;100.00
40315;BME280;26021;45.640;11.302;2022-12-10T01:48:59;97128.75;;;6.09;100.00
40315;BME280;26021;45.640;11.302;2022-12-10T01:51:26;97122.50;;;5.95;100.00
40315;BME280;26021;45.640;11.302;2022-12-10T01:53:52;97114.66;;;6.08;100.00
40315;BME280;26021;45.640;11.302;2022-12-10T01:56:18;97117.00;;;5.96;100.00
40315;BME280;26021;45.640;11.302;2022-12-10T01:58:44;97111.72;;;5.96;100.00
40315;BME280;26021;45.640;11.302;2022-12-10T02:01:14;97104.06;;;6.08;100.00
40315;BME280;26021;45.640;11.302;2022-12-10T02:04:02;97103.19;;;6.01;100.00
40315;BME280;26021;45.640;11.302;2022-12-10T02:06:31;97100.25;;;6.17;100.00
40315;BME280;26021;45.640;11.302;2022-12-10T02:09:04;97093.78;;;6.26;100.00
40315;BME280;26021;45.640;11.302;2022-12-10T02:11:38;97085.38;;;6.23;100.00
40315;BME280;26021;45.640;11.302;2022-12-10T02:14:16;97087.84;;;6.24;100.00
40315;BME280;26021;45.640;11.302;2022-12-10T02:16:47;97089.34;;;6.33;100.00
40315;BME280;26021;45.640;11.302;2022-12-10T02:19:21;97088.97;;;6.36;100.00
40315;BME280;26021;45.640;11.302;2022-12-10T02:21:51;97090.06;;;6.21;100.00
40315;BME280;26021;45.640;11.302;2022-12-10T02:24:20;97091.09;;;6.20;100.00
40315;BME280;26021;45.640;11.302;2022-12-10T02:27:48;97096.34;;;6.41;100.00
40315;BME280;26021;45.640;11.302;2022-12-10T02:29:41;97094.28;;;6.36;100.00
40315;BME280;26021;45.640;11.302;2022-12-10T02:32:11;97100.59;;;6.08;100.00
40315;BME280;26021;45.640;11.302;2022-12-10T02:34:41;97102.72;;;6.19;100.00
40315;BME280;26021;45.640;11.302;2022-12-10T02:40:09;97121.66;;;6.37;100.00
40315;BME280;26021;45.640;11.302;2022-12-10T02:42:37;97120.09;;;6.21;100.00
40315;BME280;26021;45.640;11.302;2022-12-10T02:45:03;97110.72;;;6.25;100.00
40315;BME280;26021;45.640;11.302;2022-12-10T02:47:29;97124.09;;;6.11;100.00
40315;BME280;26021;45.640;11.302;2022-12-10T02:49:55;97123.75;;;6.20;100.00
40315;BME280;26021;45.640;11.302;2022-12-10T02:52:22;97127.38;;;6.13;100.00
40315;BME280;26021;45.640;11.302;2022-12-10T02:54:48;97130.78;;;6.07;100.00
40315;BME280;26021;45.640;11.302;2022-12-10T03:05:23;97130.47;;;5.80;100.00
40315;BME280;26021;45.640;11.302;2022-12-10T03:07:33;97133.00;;;6.03;100.00
40315;BME280;26021;45.640;11.302;2022-12-10T03:10:08;97128.88;;;6.00;100.00
40315;BME280;26021;45.640;11.302;2022-12-10T03:12:39;97128.31;;;6.05;100.00
40315;BME280;26021;45.640;11.302;2022-12-10T03:15:08;97127.69;;;6.03;100.00
40315;BME280;26021;45.640;11.302;2022-12-10T03:17:34;97121.81;;;6.08;100.00
40315;BME280;26021;45.640;11.302;2022-12-10T03:20:01;97128.06;;;6.00;100.00
40315;BME280;26021;45.640;11.302;2022-12-10T03:22:27;97119.97;;;6.08;100.00
40315;BME280;26021;45.640;11.302;2022-12-10T03:24:53;97119.72;;;6.03;100.00
40315;BME280;26021;45.640;11.302;2022-12-10T03:27:19;97125.28;;;6.08;100.00
40315;BME280;26021;45.640;11.302;2022-12-10T03:29:47;97127.13;;;6.08;100.00
40315;BME280;26021;45.640;11.302;2022-12-10T03:32:13;97129.06;;;6.20;100.00
40315;BME280;26021;45.640;11.302;2022-12-10T03:34:39;97136.09;;;6.07;100.00
40315;BME280;26021;45.640;11.302;2022-12-10T03:37:05;97134.00;;;6.23;100.00
40315;BME280;26021;45.640;11.302;2022-12-10T03:39:31;97135.00;;;6.22;100.00
40315;BME280;26021;45.640;11.302;2022-12-10T03:41:57;97148.53;;;6.27;100.00
40315;BME280;26021;45.640;11.302;2022-12-10T03:44:32;97138.72;;;6.28;100.00
40315;BME280;26021;45.640;11.302;2022-12-10T03:46:57;97132.16;;;6.24;100.00
40315;BME280;26021;45.640;11.302;2022-12-10T03:49:23;97134.19;;;6.22;100.00
40315;BME280;26021;45.640;11.302;2022-12-10T03:51:48;97131.53;;;6.00;100.00
40315;BME280;26021;45.640;11.302;2022-12-10T03:54:13;97140.63;;;6.13;100.00
40315;BME280;26021;45.640;11.302;2022-12-10T03:56:39;97134.44;;;6.27;100.00
40315;BME280;26021;45.640;11.302;2022-12-10T03:59:04;97126.78;;;6.38;100.00
40315;BME280;26021;45.640;11.302;2022-12-10T04:01:29;97124.94;;;6.39;100.00
40315;BME280;26021;45.640;11.302;2022-12-10T04:03:54;97118.94;;;6.30;100.00
40315;BME280;26021;45.640;11.302;2022-12-10T04:06:20;97116.81;;;6.47;100.00
40315;BME280;26021;45.640;11.302;2022-12-10T04:08:45;97105.13;;;6.42;100.00
40315;BME280;26021;45.640;11.302;2022-12-10T04:11:12;97111.59;;;6.32;100.00
40315;BME280;26021;45.640;11.302;2022-12-10T04:13:38;97107.16;;;6.40;100.00
40315;BME280;26021;45.640;11.302;2022-12-10T04:16:23;97107.31;;;6.31;100.00
40315;BME280;26021;45.640;11.302;2022-12-10T04:18:51;97103.84;;;6.31;100.00
40315;BME280;26021;45.640;11.302;2022-12-10T04:21:17;97100.69;;;6.21;100.00
40315;BME280;26021;45.640;11.302;2022-12-10T04:24:00;97101.81;;;6.33;100.00
40315;BME280;26021;45.640;11.302;2022-12-10T04:26:44;97100.03;;;6.40;100.00
40315;BME280;26021;45.640;11.302;2022-12-10T04:29:22;97104.91;;;6.36;100.00
40315;BME280;26021;45.640;11.302;2022-12-10T04:31:48;97104.78;;;6.23;100.00
40315;BME280;26021;45.640;11.302;2022-12-10T04:34:13;97102.81;;;6.32;100.00
40315;BME280;26021;45.640;11.302;2022-12-10T04:36:38;97105.53;;;6.38;100.00
40315;BME280;26021;45.640;11.302;2022-12-10T04:39:04;97106.25;;;6.26;100.00
40315;BME280;26021;45.640;11.302;2022-12-10T04:41:29;97107.75;;;6.35;100.00
40315;BME280;26021;45.640;11.302;2022-12-10T04:43:54;97106.06;;;6.27;100.00
40315;BME280;26021;45.640;11.302;2022-12-10T04:46:20;97108.84;;;6.19;100.00
40315;BME280;26021;45.640;11.302;2022-12-10T04:48:45;97116.34;;;6.37;100.00
40315;BME280;26021;45.640;11.302;2022-12-10T04:51:10;97098.47;;;6.52;100.00
40315;BME280;26021;45.640;11.302;2022-12-10T04:53:36;97104.03;;;6.57;100.00
40315;BME280;26021;45.640;11.302;2022-12-10T04:56:01;97106.47;;;6.59;100.00
40315;BME280;26021;45.640;11.302;2022-12-10T04:58:30;97107.03;;;6.48;100.00
40315;BME280;26021;45.640;11.302;2022-12-10T05:01:02;97095.63;;;6.54;100.00
40315;BME280;26021;45.640;11.302;2022-12-10T05:03:28;97099.63;;;6.43;100.00
40315;BME280;26021;45.640;11.302;2022-12-10T05:05:54;97109.28;;;6.51;100.00
40315;BME280;26021;45.640;11.302;2022-12-10T05:08:19;97093.31;;;6.72;100.00
40315;BME280;26021;45.640;11.302;2022-12-10T05:10:44;97094.69;;;6.68;100.00
40315;BME280;26021;45.640;11.302;2022-12-10T05:13:09;97091.16;;;6.61;100.00
40315;BME280;26021;45.640;11.302;2022-12-10T05:15:37;97087.13;;;6.37;100.00
40315;BME280;26021;45.640;11.302;2022-12-10T05:18:03;97086.13;;;6.38;100.00
40315;BME280;26021;45.640;11.302;2022-12-10T05:20:28;97077.22;;;6.52;100.00
40315;BME280;26021;45.640;11.302;2022-12-10T05:22:53;97070.56;;;6.35;100.00
40315;BME280;26021;45.640;11.302;2022-12-10T05:25:37;97070.03;;;6.46;100.00
40315;BME280;26021;45.640;11.302;2022-12-10T05:28:18;97069.50;;;6.57;100.00
40315;BME280;26021;45.640;11.302;2022-12-10T05:30:43;97062.56;;;6.63;100.00
40315;BME280;26021;45.640;11.302;2022-12-10T05:33:09;97061.75;;;6.62;100.00
40315;BME280;26021;45.640;11.302;2022-12-10T05:35:34;97061.38;;;6.65;100.00
40315;BME280;26021;45.640;11.302;2022-12-10T05:37:59;97062.09;;;6.53;100.00
40315;BME280;26021;45.640;11.302;2022-12-10T05:40:24;97067.19;;;6.48;100.00
40315;BME280;26021;45.640;11.302;2022-12-10T05:42:50;97060.38;;;6.38;100.00
40315;BME280;26021;45.640;11.302;2022-12-10T05:45:15;97059.25;;;6.54;100.00
40315;BME280;26021;45.640;11.302;2022-12-10T05:47:40;97050.28;;;6.55;100.00
40315;BME280;26021;45.640;11.302;2022-12-10T05:50:06;97042.06;;;6.50;100.00
40315;BME280;26021;45.640;11.302;2022-12-10T05:52:31;97038.63;;;6.56;100.00
40315;BME280;26021;45.640;11.302;2022-12-10T05:54:56;97034.94;;;6.51;100.00
40315;BME280;26021;45.640;11.302;2022-12-10T05:57:22;97042.50;;;6.54;100.00
40315;BME280;26021;45.640;11.302;2022-12-10T05:59:47;97036.56;;;6.52;100.00
40315;BME280;26021;45.640;11.302;2022-12-10T06:02:12;97030.19;;;6.74;100.00
40315;BME280;26021;45.640;11.302;2022-12-10T06:04:37;97032.06;;;6.52;100.00
40315;BME280;26021;45.640;11.302;2022-12-10T06:07:03;97034.16;;;6.57;100.00
40315;BME280;26021;45.640;11.302;2022-12-10T06:09:28;97029.03;;;6.55;100.00
40315;BME280;26021;45.640;11.302;2022-12-10T06:11:53;97022.31;;;6.59;100.00
40315;BME280;26021;45.640;11.302;2022-12-10T06:14:19;97023.94;;;6.60;100.00
40315;BME280;26021;45.640;11.302;2022-12-10T06:16:44;97029.09;;;6.68;100.00
40315;BME280;26021;45.640;11.302;2022-12-10T06:19:09;97027.94;;;6.78;100.00
40315;BME280;26021;45.640;11.302;2022-12-10T06:21:35;97022.09;;;6.61;100.00
40315;BME280;26021;45.640;11.302;2022-12-10T06:24:00;97022.53;;;6.64;100.00
40315;BME280;26021;45.640;11.302;2022-12-10T06:26:25;97018.22;;;6.57;100.00
40315;BME280;26021;45.640;11.302;2022-12-10T06:28:51;97026.53;;;6.47;100.00
40315;BME280;26021;45.640;11.302;2022-12-10T06:31:18;97024.13;;;6.59;100.00
40315;BME280;26021;45.640;11.302;2022-12-10T06:33:44;97021.72;;;6.64;100.00
40315;BME280;26021;45.640;11.302;2022-12-10T06:36:10;97016.00;;;6.67;100.00
40315;BME280;26021;45.640;11.302;2022-12-10T06:38:36;97016.59;;;6.62;100.00
40315;BME280;26021;45.640;11.302;2022-12-10T06:41:05;97023.28;;;6.52;100.00
40315;BME280;26021;45.640;11.302;2022-12-10T06:43:31;97024.94;;;6.53;100.00
40315;BME280;26021;45.640;11.302;2022-12-10T06:45:56;97021.03;;;6.83;100.00
40315;BME280;26021;45.640;11.302;2022-12-10T06:48:21;97022.69;;;6.91;100.00
40315;BME280;26021;45.640;11.302;2022-12-10T06:50:47;97030.84;;;6.83;100.00
40315;BME280;26021;45.640;11.302;2022-12-10T06:53:12;97025.16;;;6.92;100.00
40315;BME280;26021;45.640;11.302;2022-12-10T06:55:37;97030.25;;;6.87;100.00
40315;BME280;26021;45.640;11.302;2022-12-10T06:58:03;97032.06;;;6.87;100.00
40315;BME280;26021;45.640;11.302;2022-12-10T07:00:28;97033.16;;;6.64;100.00
40315;BME280;26021;45.640;11.302;2022-12-10T07:02:54;97034.91;;;6.79;100.00
40315;BME280;26021;45.640;11.302;2022-12-10T07:05:19;97034.28;;;6.77;100.00
40315;BME280;26021;45.640;11.302;2022-12-10T07:07:44;97045.94;;;6.82;100.00
40315;BME280;26021;45.640;11.302;2022-12-10T07:10:10;97051.94;;;6.63;100.00
40315;BME280;26021;45.640;11.302;2022-12-10T07:12:35;97048.91;;;6.66;100.00
40315;BME280;26021;45.640;11.302;2022-12-10T07:15:00;97047.34;;;6.72;100.00
40315;BME280;26021;45.640;11.302;2022-12-10T07:17:25;97057.38;;;6.76;100.00
40315;BME280;26021;45.640;11.302;2022-12-10T07:19:51;97057.84;;;6.86;100.00
40315;BME280;26021;45.640;11.302;2022-12-10T07:22:16;97064.53;;;7.23;100.00
40315;BME280;26021;45.640;11.302;2022-12-10T07:24:42;97065.16;;;7.25;100.00
40315;BME280;26021;45.640;11.302;2022-12-10T07:27:08;97058.97;;;7.12;100.00
40315;BME280;26021;45.640;11.302;2022-12-10T07:29:33;97054.47;;;7.12;100.00
40315;BME280;26021;45.640;11.302;2022-12-10T07:31:59;97059.81;;;7.19;100.00
40315;BME280;26021;45.640;11.302;2022-12-10T07:34:24;97064.31;;;7.18;100.00
40315;BME280;26021;45.640;11.302;2022-12-10T07:36:49;97067.34;;;7.09;100.00
40315;BME280;26021;45.640;11.302;2022-12-10T07:39:15;97067.97;;;7.11;100.00
40315;BME280;26021;45.640;11.302;2022-12-10T07:41:52;97069.34;;;7.00;100.00
40315;BME280;26021;45.640;11.302;2022-12-10T07:44:18;97078.72;;;6.96;100.00
40315;BME280;26021;45.640;11.302;2022-12-10T07:46:46;97074.50;;;7.08;100.00
40315;BME280;26021;45.640;11.302;2022-12-10T07:49:11;97083.75;;;7.25;100.00
40315;BME280;26021;45.640;11.302;2022-12-10T07:51:37;97073.69;;;7.14;100.00
40315;BME280;26021;45.640;11.302;2022-12-10T07:54:02;97071.84;;;7.08;100.00
40315;BME280;26021;45.640;11.302;2022-12-10T07:56:27;97069.63;;;7.18;100.00
40315;BME280;26021;45.640;11.302;2022-12-10T07:58:53;97075.09;;;7.10;100.00
40315;BME280;26021;45.640;11.302;2022-12-10T08:01:20;97087.16;;;7.06;100.00
40315;BME280;26021;45.640;11.302;2022-12-10T08:03:47;97090.91;;;7.25;100.00
40315;BME280;26021;45.640;11.302;2022-12-10T08:06:14;97087.47;;;7.31;100.00
40315;BME280;26021;45.640;11.302;2022-12-10T08:08:40;97080.69;;;7.22;100.00
40315;BME280;26021;45.640;11.302;2022-12-10T08:11:06;97079.84;;;7.15;100.00
40315;BME280;26021;45.640;11.302;2022-12-10T08:13:31;97086.78;;;7.16;100.00
40315;BME280;26021;45.640;11.302;2022-12-10T08:16:03;97095.16;;;7.13;100.00
40315;BME280;26021;45.640;11.302;2022-12-10T08:18:30;97084.81;;;7.38;100.00
40315;BME280;26021;45.640;11.302;2022-12-10T08:20:55;97085.44;;;7.33;100.00
40315;BME280;26021;45.640;11.302;2022-12-10T08:23:20;97079.25;;;7.26;100.00
40315;BME280;26021;45.640;11.302;2022-12-10T08:25:46;97079.84;;;7.21;100.00
40315;BME280;26021;45.640;11.302;2022-12-10T08:28:11;97080.19;;;7.05;100.00
40315;BME280;26021;45.640;11.302;2022-12-10T08:30:36;97083.09;;;7.10;100.00
40315;BME280;26021;45.640;11.302;2022-12-10T08:33:02;97083.28;;;7.09;100.00
40315;BME280;26021;45.640;11.302;2022-12-10T08:35:27;97077.56;;;7.12;100.00
40315;BME280;26021;45.640;11.302;2022-12-10T08:37:53;97080.06;;;7.20;100.00
40315;BME280;26021;45.640;11.302;2022-12-10T08:40:18;97070.38;;;7.06;100.00
40315;BME280;26021;45.640;11.302;2022-12-10T08:42:43;97069.00;;;7.16;100.00
40315;BME280;26021;45.640;11.302;2022-12-10T08:45:09;97078.47;;;7.32;100.00
40315;BME280;26021;45.640;11.302;2022-12-10T08:47:34;97078.63;;;7.24;100.00
40315;BME280;26021;45.640;11.302;2022-12-10T08:49:59;97071.94;;;7.41;100.00
40315;BME280;26021;45.640;11.302;2022-12-10T08:52:25;97067.63;;;7.33;100.00
40315;BME280;26021;45.640;11.302;2022-12-10T08:54:50;97071.69;;;7.23;100.00
40315;BME280;26021;45.640;11.302;2022-12-10T08:57:15;97070.44;;;7.19;100.00
40315;BME280;26021;45.640;11.302;2022-12-10T08:59:41;97072.31;;;7.25;100.00
40315;BME280;26021;45.640;11.302;2022-12-10T09:02:08;97069.44;;;7.20;100.00
40315;BME280;26021;45.640;11.302;2022-12-10T09:04:35;97083.13;;;7.23;100.00
40315;BME280;26021;45.640;11.302;2022-12-10T09:07:00;97081.56;;;7.42;100.00
40315;BME280;26021;45.640;11.302;2022-12-10T09:09:26;97073.59;;;7.42;100.00
40315;BME280;26021;45.640;11.302;2022-12-10T09:11:52;97071.63;;;7.64;100.00
40315;BME280;26021;45.640;11.302;2022-12-10T09:14:17;97063.41;;;7.52;100.00
40315;BME280;26021;45.640;11.302;2022-12-10T09:16:42;97061.56;;;7.53;100.00
40315;BME280;26021;45.640;11.302;2022-12-10T09:19:08;97055.88;;;7.69;100.00
40315;BME280;26021;45.640;11.302;2022-12-10T09:21:34;97050.56;;;7.89;100.00
40315;BME280;26021;45.640;11.302;2022-12-10T09:23:59;97052.81;;;7.79;100.00
40315;BME280;26021;45.640;11.302;2022-12-10T09:26:25;97044.44;;;7.95;100.00
40315;BME280;26021;45.640;11.302;2022-12-10T09:28:50;97044.25;;;8.23;100.00
40315;BME280;26021;45.640;11.302;2022-12-10T09:31:16;97044.44;;;7.95;100.00
40315;BME280;26021;45.640;11.302;2022-12-10T09:33:41;97049.13;;;7.86;100.00
40315;BME280;26021;45.640;11.302;2022-12-10T09:36:07;97044.63;;;7.87;100.00
40315;BME280;26021;45.640;11.302;2022-12-10T09:38:34;97041.78;;;8.15;100.00
40315;BME280;26021;45.640;11.302;2022-12-10T09:41:01;97039.97;;;8.35;100.00
40315;BME280;26021;45.640;11.302;2022-12-10T09:46:06;97032.34;;;8.12;100.00
40315;BME280;26021;45.640;11.302;2022-12-10T09:51:27;97026.00;;;7.93;100.00
40315;BME280;26021;45.640;11.302;2022-12-10T09:53:55;97021.28;;;8.02;100.00
40315;BME280;26021;45.640;11.302;2022-12-10T09:56:31;97018.22;;;7.92;100.00
40315;BME280;26021;45.640;11.302;2022-12-10T09:59:00;97019.66;;;8.01;100.00
40315;BME280;26021;45.640;11.302;2022-12-10T10:01:27;97011.25;;;8.11;100.00
40315;BME280;26021;45.640;11.302;2022-12-10T10:03:52;97002.84;;;8.14;100.00
40315;BME280;26021;45.640;11.302;2022-12-10T10:06:18;97002.28;;;8.38;100.00
40315;BME280;26021;45.640;11.302;2022-12-10T10:08:46;97004.91;;;8.32;100.00
40315;BME280;26021;45.640;11.302;2022-12-10T10:11:17;96997.50;;;8.60;100.00
40315;BME280;26021;45.640;11.302;2022-12-10T10:13:53;96993.47;;;8.38;100.00
40315;BME280;26021;45.640;11.302;2022-12-10T10:16:20;96992.75;;;8.69;100.00
40315;BME280;26021;45.640;11.302;2022-12-10T10:21:17;96969.09;;;8.99;100.00
40315;BME280;26021;45.640;11.302;2022-12-10T10:23:45;96968.97;;;8.74;100.00
40315;BME280;26021;45.640;11.302;2022-12-10T10:26:11;96971.41;;;8.75;100.00
40315;BME280;26021;45.640;11.302;2022-12-10T10:28:36;96960.50;;;8.83;100.00
40315;BME280;26021;45.640;11.302;2022-12-10T10:31:07;96945.50;;;8.96;100.00
40315;BME280;26021;45.640;11.302;2022-12-10T10:33:43;96940.50;;;9.12;100.00
40315;BME280;26021;45.640;11.302;2022-12-10T10:36:12;96945.66;;;9.39;100.00
40315;BME280;26021;45.640;11.302;2022-12-10T10:38:38;96938.91;;;9.36;100.00
40315;BME280;26021;45.640;11.302;2022-12-10T10:41:03;96931.59;;;9.56;100.00
40315;BME280;26021;45.640;11.302;2022-12-10T10:43:42;96931.41;;;9.51;100.00
40315;BME280;26021;45.640;11.302;2022-12-10T10:46:54;96928.53;;;9.21;100.00
40315;BME280;26021;45.640;11.302;2022-12-10T10:54:50;96911.47;;;9.29;100.00
40315;BME280;26021;45.640;11.302;2022-12-10T10:59:49;96904.44;;;9.35;100.00
40315;BME280;26021;45.640;11.302;2022-12-10T11:04:52;96895.84;;;9.57;100.00
40315;BME280;26021;45.640;11.302;2022-12-10T11:07:38;96903.50;;;9.79;100.00
40315;BME280;26021;45.640;11.302;2022-12-10T11:10:17;96721.75;;;8.69;100.00
40315;BME280;26021;45.640;11.302;2022-12-10T11:12:53;96893.13;;;9.89;100.00
40315;BME280;26021;45.640;11.302;2022-12-10T11:17:49;96886.59;;;9.85;100.00
40315;BME280;26021;45.640;11.302;2022-12-10T11:20:22;96884.25;;;9.95;100.00
40315;BME280;26021;45.640;11.302;2022-12-10T11:22:53;96872.59;;;9.90;100.00
40315;BME280;26021;45.640;11.302;2022-12-10T11:50:14;96838.09;;;9.88;100.00
40315;BME280;26021;45.640;11.302;2022-12-10T11:53:12;96829.72;;;9.84;100.00
40315;BME280;26021;45.640;11.302;2022-12-10T12:01:37;96818.84;;;9.61;100.00
40315;BME280;26021;45.640;11.302;2022-12-10T12:10:26;96810.72;;;9.93;100.00
40315;BME280;26021;45.640;11.302;2022-12-10T12:12:57;96801.09;;;9.73;100.00
40315;BME280;26021;45.640;11.302;2022-12-10T12:15:40;96799.75;;;10.01;100.00
40315;BME280;26021;45.640;11.302;2022-12-10T12:20:59;96764.97;;;9.71;100.00
40315;BME280;26021;45.640;11.302;2022-12-10T12:23:59;96792.41;;;9.78;100.00
40315;BME280;26021;45.640;11.302;2022-12-10T12:26:28;96799.25;;;9.92;100.00
40315;BME280;26021;45.640;11.302;2022-12-10T12:31:31;96751.63;;;9.71;100.00
40315;BME280;26021;45.640;11.302;2022-12-10T12:37:03;96785.31;;;9.65;100.00
40315;BME280;26021;45.640;11.302;2022-12-10T12:49:53;96780.41;;;9.87;100.00
40315;BME280;26021;45.640;11.302;2022-12-10T12:52:48;96780.41;;;9.87;100.00
40315;BME280;26021;45.640;11.302;2022-12-10T13:00:51;96774.72;;;9.59;100.00
40315;BME280;26021;45.640;11.302;2022-12-10T13:03:39;96768.69;;;9.70;100.00
40315;BME280;26021;45.640;11.302;2022-12-10T13:06:22;96768.25;;;9.48;100.00
40315;BME280;26021;45.640;11.302;2022-12-10T13:08:57;96762.09;;;9.47;100.00
40315;BME280;26021;45.640;11.302;2022-12-10T13:11:32;96760.84;;;9.50;100.00
40315;BME280;26021;45.640;11.302;2022-12-10T13:22:08;96762.84;;;9.36;100.00
40315;BME280;26021;45.640;11.302;2022-12-10T13:27:18;96748.00;;;9.22;100.00
40315;BME280;26021;45.640;11.302;2022-12-10T13:29:56;96769.97;;;9.42;100.00
40315;BME280;26021;45.640;11.302;2022-12-10T13:46:50;96772.16;;;9.27;100.00
40315;BME280;26021;45.640;11.302;2022-12-10T13:49:26;96666.81;;;8.68;100.00
40315;BME280;26021;45.640;11.302;2022-12-10T13:52:05;96773.28;;;9.38;100.00
40315;BME280;26021;45.640;11.302;2022-12-10T13:59:47;96770.75;;;9.24;100.00
40315;BME280;26021;45.640;11.302;2022-12-10T14:02:25;96767.47;;;9.22;100.00
40315;BME280;26021;45.640;11.302;2022-12-10T14:08:00;96566.84;;;8.09;100.00
40315;BME280;26021;45.640;11.302;2022-12-10T14:10:31;96765.13;;;9.33;100.00
40315;BME280;26021;45.640;11.302;2022-12-10T14:12:59;96767.84;;;9.26;100.00
40315;BME280;26021;45.640;11.302;2022-12-10T14:15:26;96764.28;;;9.57;100.00
40315;BME280;26021;45.640;11.302;2022-12-10T14:18:12;96758.25;;;9.62;100.00
40315;BME280;26021;45.640;11.302;2022-12-10T14:20:47;96764.88;;;9.59;100.00
40315;BME280;26021;45.640;11.302;2022-12-10T14:23:29;96755.13;;;9.46;100.00
40315;BME280;26021;45.640;11.302;2022-12-10T14:25:58;96733.13;;;9.33;100.00
40315;BME280;26021;45.640;11.302;2022-12-10T14:28:29;96760.53;;;9.40;100.00
40315;BME280;26021;45.640;11.302;2022-12-10T14:30:55;96758.94;;;9.57;100.00
40315;BME280;26021;45.640;11.302;2022-12-10T14:33:22;96764.59;;;9.67;100.00
40315;BME280;26021;45.640;11.302;2022-12-10T14:35:50;96761.75;;;9.62;100.00
40315;BME280;26021;45.640;11.302;2022-12-10T14:38:20;96762.72;;;9.49;100.00
40315;BME280;26021;45.640;11.302;2022-12-10T14:40:47;96763.75;;;9.48;100.00
40315;BME280;26021;45.640;11.302;2022-12-10T14:43:21;96767.34;;;9.36;100.00
40315;BME280;26021;45.640;11.302;2022-12-10T14:45:53;96768.13;;;9.61;100.00
40315;BME280;26021;45.640;11.302;2022-12-10T14:48:21;96767.97;;;9.56;100.00
40315;BME280;26021;45.640;11.302;2022-12-10T14:50:48;96756.84;;;9.41;100.00
40315;BME280;26021;45.640;11.302;2022-12-10T14:53:19;96761.56;;;9.39;100.00
40315;BME280;26021;45.640;11.302;2022-12-10T14:55:46;96739.81;;;9.17;100.00
40315;BME280;26021;45.640;11.302;2022-12-10T14:58:18;96710.53;;;8.85;100.00
40315;BME280;26021;45.640;11.302;2022-12-10T15:00:45;96751.31;;;9.17;100.00
40315;BME280;26021;45.640;11.302;2022-12-10T15:03:22;96758.78;;;9.09;100.00
40315;BME280;26021;45.640;11.302;2022-12-10T15:05:58;96766.19;;;9.07;100.00